sensor_id;sensor_type;location;lat;lon;timestamp;pressure;altitude;pressure_sealevel;temperature;humidity
1832;BME280;1680;48.106;11.708;2023-03-31T00:00:08;95154.22;;;7.92;100.00
1832;BME280;1680;48.106;11.708;2023-03-31T00:02:37;95148.25;;;7.85;100.00
1832;BME280;1680;48.106;11.708;2023-03-31T00:05:06;95153.13;;;7.81;100.00
1832;BME280;1680;48.106;11.708;2023-03-31T00:07:34;95144.69;;;7.79;100.00
1832;BME280;1680;48.106;11.708;2023-03-31T00:10:05;95140.91;;;7.75;100.00
1832;BME280;1680;48.106;11.708;2023-03-31T00:12:32;95137.66;;;7.80;100.00
1832;BME280;1680;48.106;11.708;2023-03-31T00:14:59;95135.84;;;7.80;100.00
1832;BME280;1680;48.106;11.708;2023-03-31T00:17:27;95120.28;;;7.92;100.00
1832;BME280;1680;48.106;11.708;2023-03-31T00:19:57;95116.75;;;7.86;100.00
1832;BME280;1680;48.106;11.708;2023-03-31T00:22:25;95116.44;;;7.94;100.00
1832;BME280;1680;48.106;11.708;2023-03-31T00:24:53;95003.72;;;7.26;100.00
1832;BME280;1680;48.106;11.708;2023-03-31T00:27:21;95110.81;;;7.97;100.00
1832;BME280;1680;48.106;11.708;2023-03-31T00:29:49;95098.16;;;7.94;100.00
1832;BME280;1680;48.106;11.708;2023-03-31T00:32:17;95106.00;;;7.94;100.00
1832;BME280;1680;48.106;11.708;2023-03-31T00:34:45;95097.22;;;7.89;100.00
1832;BME280;1680;48.106;11.708;2023-03-31T00:37:12;95033.59;;;7.48;100.00
1832;BME280;1680;48.106;11.708;2023-03-31T00:39:40;95095.09;;;7.79;100.00
1832;BME280;1680;48.106;11.708;2023-03-31T00:42:09;95081.56;;;7.89;100.00
1832;BME280;1680;48.106;11.708;2023-03-31T00:45:19;95076.56;;;8.05;100.00
1832;BME280;1680;48.106;11.708;2023-03-31T00:47:49;95073.16;;;8.05;100.00
1832;BME280;1680;48.106;11.708;2023-03-31T00:50:20;95074.25;;;8.15;100.00
1832;BME280;1680;48.106;11.708;2023-03-31T00:52:51;95058.59;;;8.15;100.00
1832;BME280;1680;48.106;11.708;2023-03-31T00:55:23;95055.53;;;8.18;100.00
1832;BME280;1680;48.106;11.708;2023-03-31T00:57:51;95051.84;;;8.26;100.00
1832;BME280;1680;48.106;11.708;2023-03-31T01:00:21;95050.25;;;8.25;100.00
1832;BME280;1680;48.106;11.708;2023-03-31T01:02:52;95048.00;;;8.28;100.00
1832;BME280;1680;48.106;11.708;2023-03-31T01:05:23;95045.66;;;8.38;100.00
1832;BME280;1680;48.106;11.708;2023-03-31T01:07:53;94981.84;;;7.98;100.00
1832;BME280;1680;48.106;11.708;2023-03-31T01:10:21;95030.72;;;8.45;100.00
1832;BME280;1680;48.106;11.708;2023-03-31T01:12:51;95036.94;;;8.44;100.00
1832;BME280;1680;48.106;11.708;2023-03-31T01:15:21;95032.81;;;8.37;100.00
1832;BME280;1680;48.106;11.708;2023-03-31T01:17:51;95022.00;;;8.33;100.00
1832;BME280;1680;48.106;11.708;2023-03-31T01:20:26;95020.97;;;8.34;100.00
1832;BME280;1680;48.106;11.708;2023-03-31T01:23:24;95017.34;;;8.35;100.00
1832;BME280;1680;48.106;11.708;2023-03-31T01:26:22;95013.72;;;8.36;100.00
1832;BME280;1680;48.106;11.708;2023-03-31T01:28:56;95017.94;;;8.37;100.00
1832;BME280;1680;48.106;11.708;2023-03-31T01:43:18;94977.72;;;8.38;100.00
1832;BME280;1680;48.106;11.708;2023-03-31T01:45:55;94977.38;;;8.35;100.00
1832;BME280;1680;48.106;11.708;2023-03-31T01:48:31;94977.38;;;8.35;100.00
1832;BME280;1680;48.106;11.708;2023-03-31T01:51:05;94977.03;;;8.31;100.00
1832;BME280;1680;48.106;11.708;2023-03-31T01:53:44;94972.16;;;8.35;100.00
1832;BME280;1680;48.106;11.708;2023-03-31T01:56:19;94965.34;;;8.34;100.00
1832;BME280;1680;48.106;11.708;2023-03-31T01:58:53;94972.06;;;8.41;100.00
1832;BME280;1680;48.106;11.708;2023-03-31T02:01:27;94972.06;;;8.41;100.00
1832;BME280;1680;48.106;11.708;2023-03-31T02:03:59;94964.13;;;8.48;100.00
1832;BME280;1680;48.106;11.708;2023-03-31T02:06:34;94961.88;;;8.51;100.00
1832;BME280;1680;48.106;11.708;2023-03-31T02:09:05;94951.22;;;8.53;100.00
1832;BME280;1680;48.106;11.708;2023-03-31T02:11:37;94948.94;;;8.56;100.00
1832;BME280;1680;48.106;11.708;2023-03-31T02:14:09;94948.59;;;8.53;100.00
1832;BME280;1680;48.106;11.708;2023-03-31T02:16:39;94939.59;;;8.49;100.00
1832;BME280;1680;48.106;11.708;2023-03-31T02:19:13;94936.00;;;8.61;100.00
1832;BME280;1680;48.106;11.708;2023-03-31T02:21:45;94926.09;;;8.63;100.00
1832;BME280;1680;48.106;11.708;2023-03-31T02:24:15;94924.53;;;8.73;100.00
1832;BME280;1680;48.106;11.708;2023-03-31T02:26:48;94922.13;;;8.61;100.00
1832;BME280;1680;48.106;11.708;2023-03-31T02:29:18;94867.78;;;8.28;100.00
1832;BME280;1680;48.106;11.708;2023-03-31T02:31:47;94927.59;;;8.59;100.00
1832;BME280;1680;48.106;11.708;2023-03-31T02:34:18;94922.47;;;8.64;100.00
1832;BME280;1680;48.106;11.708;2023-03-31T02:36:46;94927.13;;;8.62;100.00
1832;BME280;1680;48.106;11.708;2023-03-31T02:39:18;94918.97;;;8.70;100.00
1832;BME280;1680;48.106;11.708;2023-03-31T02:41:48;94913.19;;;8.79;100.00
1832;BME280;1680;48.106;11.708;2023-03-31T02:44:16;94915.66;;;8.74;100.00
1832;BME280;1680;48.106;11.708;2023-03-31T02:46:43;94915.22;;;8.77;100.00
1832;BME280;1680;48.106;11.708;2023-03-31T02:49:12;94909.19;;;8.77;100.00
1832;BME280;1680;48.106;11.708;2023-03-31T02:51:52;94915.47;;;8.76;100.00
1832;BME280;1680;48.106;11.708;2023-03-31T02:54:56;94919.91;;;8.87;100.00
1832;BME280;1680;48.106;11.708;2023-03-31T02:57:53;94917.50;;;8.97;100.00
1832;BME280;1680;48.106;11.708;2023-03-31T03:00:33;94922.28;;;9.00;100.00
1832;BME280;1680;48.106;11.708;2023-03-31T03:03:13;94920.34;;;9.07;100.00
1832;BME280;1680;48.106;11.708;2023-03-31T03:05:49;94918.84;;;8.99;100.00
1832;BME280;1680;48.106;11.708;2023-03-31T03:08:27;94916.47;;;8.98;100.00
1832;BME280;1680;48.106;11.708;2023-03-31T03:11:03;94915.69;;;8.97;100.00
1832;BME280;1680;48.106;11.708;2023-03-31T03:13:40;94908.06;;;8.96;100.00
1832;BME280;1680;48.106;11.708;2023-03-31T03:16:16;94896.59;;;8.97;100.00
1832;BME280;1680;48.106;11.708;2023-03-31T03:18:54;94893.63;;;9.05;100.00
1832;BME280;1680;48.106;11.708;2023-03-31T03:21:21;94898.63;;;9.06;100.00
1832;BME280;1680;48.106;11.708;2023-03-31T03:23:49;94893.63;;;9.05;100.00
1832;BME280;1680;48.106;11.708;2023-03-31T03:26:17;94898.75;;;9.00;100.00
1832;BME280;1680;48.106;11.708;2023-03-31T03:28:49;94905.13;;;9.04;100.00
1832;BME280;1680;48.106;11.708;2023-03-31T03:31:17;94908.41;;;8.99;100.00
1832;BME280;1680;48.106;11.708;2023-03-31T03:33:45;94906.25;;;9.08;100.00
1832;BME280;1680;48.106;11.708;2023-03-31T03:36:12;94915.00;;;9.02;100.00
1832;BME280;1680;48.106;11.708;2023-03-31T03:38:39;94920.59;;;9.17;100.00
1832;BME280;1680;48.106;11.708;2023-03-31T03:41:07;94924.22;;;9.04;100.00
1832;BME280;1680;48.106;11.708;2023-03-31T03:43:35;94925.81;;;9.05;100.00
1832;BME280;1680;48.106;11.708;2023-03-31T03:46:04;94941.38;;;9.12;100.00
1832;BME280;1680;48.106;11.708;2023-03-31T03:48:31;94935.00;;;9.31;100.00
1832;BME280;1680;48.106;11.708;2023-03-31T03:50:58;94937.50;;;9.14;100.00
1832;BME280;1680;48.106;11.708;2023-03-31T03:53:26;94939.59;;;9.12;100.00
1832;BME280;1680;48.106;11.708;2023-03-31T03:55:53;94935.69;;;9.15;100.00
1832;BME280;1680;48.106;11.708;2023-03-31T03:58:20;94927.53;;;9.11;100.00
1832;BME280;1680;48.106;11.708;2023-03-31T04:00:48;94916.94;;;9.18;100.00
1832;BME280;1680;48.106;11.708;2023-03-31T04:03:17;94924.53;;;9.08;100.00
1832;BME280;1680;48.106;11.708;2023-03-31T04:05:46;94917.41;;;9.15;100.00
1832;BME280;1680;48.106;11.708;2023-03-31T04:08:14;94908.66;;;9.21;100.00
1832;BME280;1680;48.106;11.708;2023-03-31T04:10:43;94898.38;;;9.31;100.00
1832;BME280;1680;48.106;11.708;2023-03-31T04:13:11;94876.56;;;9.14;100.00
1832;BME280;1680;48.106;11.708;2023-03-31T04:15:38;94872.34;;;9.13;100.00
1832;BME280;1680;48.106;11.708;2023-03-31T04:18:05;94865.75;;;9.22;100.00
1832;BME280;1680;48.106;11.708;2023-03-31T04:20:36;94863.69;;;9.24;100.00
1832;BME280;1680;48.106;11.708;2023-03-31T04:23:03;94858.25;;;9.14;100.00
1832;BME280;1680;48.106;11.708;2023-03-31T04:25:34;94857.81;;;9.17;100.00
1832;BME280;1680;48.106;11.708;2023-03-31T04:28:03;94840.16;;;9.24;100.00
1832;BME280;1680;48.106;11.708;2023-03-31T04:30:31;94828.19;;;9.28;100.00
1832;BME280;1680;48.106;11.708;2023-03-31T04:33:00;94828.56;;;9.20;100.00
1832;BME280;1680;48.106;11.708;2023-03-31T04:35:29;94774.72;;;8.84;100.00
1832;BME280;1680;48.106;11.708;2023-03-31T04:38:08;94767.69;;;8.85;100.00
1832;BME280;1680;48.106;11.708;2023-03-31T04:40:35;94807.41;;;9.21;100.00
1832;BME280;1680;48.106;11.708;2023-03-31T04:43:04;94813.41;;;9.22;100.00
1832;BME280;1680;48.106;11.708;2023-03-31T04:45:31;94807.66;;;9.20;100.00
1832;BME280;1680;48.106;11.708;2023-03-31T04:47:59;94807.09;;;9.18;100.00
1832;BME280;1680;48.106;11.708;2023-03-31T04:50:26;94801.50;;;9.14;100.00
1832;BME280;1680;48.106;11.708;2023-03-31T04:52:53;94802.31;;;9.15;100.00
1832;BME280;1680;48.106;11.708;2023-03-31T04:55:22;94756.66;;;8.83;100.00
1832;BME280;1680;48.106;11.708;2023-03-31T04:57:49;94813.53;;;9.15;100.00
1832;BME280;1680;48.106;11.708;2023-03-31T05:00:18;94812.44;;;9.11;100.00
1832;BME280;1680;48.106;11.708;2023-03-31T05:02:45;94801.63;;;9.08;100.00
1832;BME280;1680;48.106;11.708;2023-03-31T05:05:13;94789.13;;;9.10;100.00
1832;BME280;1680;48.106;11.708;2023-03-31T05:07:40;94756.13;;;9.09;100.00
1832;BME280;1680;48.106;11.708;2023-03-31T05:10:08;94725.47;;;9.04;100.00
1832;BME280;1680;48.106;11.708;2023-03-31T05:12:37;94722.53;;;9.01;100.00
1832;BME280;1680;48.106;11.708;2023-03-31T05:15:06;94674.59;;;8.84;100.00
1832;BME280;1680;48.106;11.708;2023-03-31T05:17:34;94698.47;;;9.15;100.00
1832;BME280;1680;48.106;11.708;2023-03-31T05:20:02;94687.22;;;9.15;100.00
1832;BME280;1680;48.106;11.708;2023-03-31T05:22:34;94681.88;;;9.10;100.00
1832;BME280;1680;48.106;11.708;2023-03-31T05:25:02;94665.16;;;9.11;100.00
1832;BME280;1680;48.106;11.708;2023-03-31T05:27:31;94675.00;;;9.04;100.00
1832;BME280;1680;48.106;11.708;2023-03-31T05:30:00;94659.31;;;9.04;100.00
1832;BME280;1680;48.106;11.708;2023-03-31T05:32:27;94643.13;;;9.07;100.00
1832;BME280;1680;48.106;11.708;2023-03-31T05:34:55;94635.84;;;9.09;100.00
1832;BME280;1680;48.106;11.708;2023-03-31T05:37:23;94633.47;;;9.07;100.00
1832;BME280;1680;48.106;11.708;2023-03-31T05:39:50;94624.44;;;9.15;100.00
1832;BME280;1680;48.106;11.708;2023-03-31T05:42:18;94634.44;;;9.18;100.00
1832;BME280;1680;48.106;11.708;2023-03-31T05:44:46;94627.38;;;9.18;100.00
1832;BME280;1680;48.106;11.708;2023-03-31T05:47:15;94615.13;;;9.19;100.00
1832;BME280;1680;48.106;11.708;2023-03-31T05:49:42;94605.28;;;9.26;100.00
1832;BME280;1680;48.106;11.708;2023-03-31T05:52:10;94597.44;;;9.26;100.00
1832;BME280;1680;48.106;11.708;2023-03-31T05:54:37;94593.88;;;9.32;100.00
1832;BME280;1680;48.106;11.708;2023-03-31T05:57:05;94581.97;;;9.41;100.00
1832;BME280;1680;48.106;11.708;2023-03-31T05:59:32;94578.16;;;9.48;100.00
1832;BME280;1680;48.106;11.708;2023-03-31T06:02:00;94574.81;;;9.53;100.00
1832;BME280;1680;48.106;11.708;2023-03-31T06:04:29;94559.63;;;9.50;100.00
1832;BME280;1680;48.106;11.708;2023-03-31T06:06:57;94548.19;;;9.56;100.00
1832;BME280;1680;48.106;11.708;2023-03-31T06:09:24;94542.78;;;9.62;100.00
1832;BME280;1680;48.106;11.708;2023-03-31T06:11:52;94556.97;;;10.20;100.00
1832;BME280;1680;48.106;11.708;2023-03-31T06:14:19;94536.84;;;10.47;100.00
1832;BME280;1680;48.106;11.708;2023-03-31T06:16:47;94531.25;;;10.39;100.00
1832;BME280;1680;48.106;11.708;2023-03-31T06:19:14;94531.03;;;10.40;100.00
1832;BME280;1680;48.106;11.708;2023-03-31T06:21:43;94516.34;;;10.39;100.00
1832;BME280;1680;48.106;11.708;2023-03-31T06:24:10;94511.03;;;10.34;100.00
1832;BME280;1680;48.106;11.708;2023-03-31T06:26:38;94495.44;;;10.23;100.00
1832;BME280;1680;48.106;11.708;2023-03-31T06:29:05;94495.22;;;10.29;100.00
1832;BME280;1680;48.106;11.708;2023-03-31T06:31:32;94489.78;;;10.31;100.00
1832;BME280;1680;48.106;11.708;2023-03-31T06:33:59;94500.34;;;10.41;100.00
1832;BME280;1680;48.106;11.708;2023-03-31T06:36:27;94428.94;;;10.02;100.00
1832;BME280;1680;48.106;11.708;2023-03-31T06:38:55;94470.97;;;10.39;100.00
1832;BME280;1680;48.106;11.708;2023-03-31T06:41:23;94460.19;;;10.35;100.00
1832;BME280;1680;48.106;11.708;2023-03-31T06:43:50;94456.63;;;10.46;100.00
1832;BME280;1680;48.106;11.708;2023-03-31T06:46:18;94464.28;;;10.48;100.00
1832;BME280;1680;48.106;11.708;2023-03-31T06:48:45;94455.59;;;10.47;100.00
1832;BME280;1680;48.106;11.708;2023-03-31T06:51:12;94453.78;;;10.48;100.00
1832;BME280;1680;48.106;11.708;2023-03-31T06:53:40;94450.50;;;10.62;100.00
1832;BME280;1680;48.106;11.708;2023-03-31T06:56:08;94445.47;;;10.87;100.00
1832;BME280;1680;48.106;11.708;2023-03-31T06:58:36;94449.59;;;10.78;100.00
1832;BME280;1680;48.106;11.708;2023-03-31T07:01:04;94438.69;;;10.91;100.00
1832;BME280;1680;48.106;11.708;2023-03-31T07:03:32;94445.22;;;10.88;100.00
1832;BME280;1680;48.106;11.708;2023-03-31T07:05:59;94459.41;;;11.24;100.00
1832;BME280;1680;48.106;11.708;2023-03-31T07:08:26;94451.00;;;11.22;100.00
1832;BME280;1680;48.106;11.708;2023-03-31T07:10:56;94437.66;;;10.92;100.00
1832;BME280;1680;48.106;11.708;2023-03-31T07:13:25;94486.63;;;11.18;100.00
1832;BME280;1680;48.106;11.708;2023-03-31T07:15:52;94519.81;;;11.29;100.00
1832;BME280;1680;48.106;11.708;2023-03-31T07:18:20;94552.28;;;11.23;100.00
1832;BME280;1680;48.106;11.708;2023-03-31T07:20:50;94536.97;;;11.10;100.00
1832;BME280;1680;48.106;11.708;2023-03-31T07:23:18;94544.13;;;11.87;100.00
1832;BME280;1680;48.106;11.708;2023-03-31T07:25:46;94573.25;;;11.80;100.00
1832;BME280;1680;48.106;11.708;2023-03-31T07:28:14;94551.56;;;11.59;100.00
1832;BME280;1680;48.106;11.708;2023-03-31T07:30:43;94606.91;;;11.52;100.00
1832;BME280;1680;48.106;11.708;2023-03-31T07:33:10;94611.56;;;11.19;100.00
1832;BME280;1680;48.106;11.708;2023-03-31T07:35:38;94577.53;;;10.76;100.00
1832;BME280;1680;48.106;11.708;2023-03-31T07:38:07;94610.19;;;10.85;100.00
1832;BME280;1680;48.106;11.708;2023-03-31T07:40:34;94608.53;;;10.79;100.00
1832;BME280;1680;48.106;11.708;2023-03-31T07:43:01;94593.97;;;10.93;100.00
1832;BME280;1680;48.106;11.708;2023-03-31T07:45:28;94597.94;;;10.69;100.00
1832;BME280;1680;48.106;11.708;2023-03-31T07:47:57;94568.56;;;10.72;100.00
1832;BME280;1680;48.106;11.708;2023-03-31T07:50:24;94546.56;;;11.26;100.00
1832;BME280;1680;48.106;11.708;2023-03-31T07:52:52;94531.28;;;11.23;100.00
1832;BME280;1680;48.106;11.708;2023-03-31T07:55:19;94541.94;;;11.06;100.00
1832;BME280;1680;48.106;11.708;2023-03-31T07:57:48;94470.56;;;10.78;100.00
1832;BME280;1680;48.106;11.708;2023-03-31T08:00:17;94532.22;;;11.07;100.00
1832;BME280;1680;48.106;11.708;2023-03-31T08:02:45;94523.44;;;10.91;100.00
1832;BME280;1680;48.106;11.708;2023-03-31T08:05:15;94496.94;;;10.93;100.00
1832;BME280;1680;48.106;11.708;2023-03-31T08:07:45;94507.91;;;10.90;100.00
1832;BME280;1680;48.106;11.708;2023-03-31T08:10:16;94462.41;;;11.06;100.00
1832;BME280;1680;48.106;11.708;2023-03-31T08:12:43;94467.34;;;11.34;100.00
1832;BME280;1680;48.106;11.708;2023-03-31T08:15:11;94466.34;;;11.40;100.00
1832;BME280;1680;48.106;11.708;2023-03-31T08:17:39;94443.22;;;11.37;100.00
1832;BME280;1680;48.106;11.708;2023-03-31T08:20:07;94460.00;;;11.31;100.00
1832;BME280;1680;48.106;11.708;2023-03-31T08:22:36;94459.94;;;11.26;100.00
1832;BME280;1680;48.106;11.708;2023-03-31T08:25:05;94470.16;;;11.22;100.00
1832;BME280;1680;48.106;11.708;2023-03-31T08:27:33;94456.22;;;11.22;100.00
1832;BME280;1680;48.106;11.708;2023-03-31T08:30:00;94459.34;;;11.14;100.00
1832;BME280;1680;48.106;11.708;2023-03-31T08:32:30;94441.53;;;11.16;100.00
1832;BME280;1680;48.106;11.708;2023-03-31T08:34:57;94433.66;;;11.21;100.00
1832;BME280;1680;48.106;11.708;2023-03-31T08:37:25;94438.66;;;11.22;100.00
1832;BME280;1680;48.106;11.708;2023-03-31T08:39:54;94435.78;;;11.24;100.00
1832;BME280;1680;48.106;11.708;2023-03-31T08:42:32;94442.06;;;11.23;100.00
1832;BME280;1680;48.106;11.708;2023-03-31T08:45:04;94437.53;;;11.13;100.00
1832;BME280;1680;48.106;11.708;2023-03-31T08:47:35;94446.81;;;11.26;100.00
1832;BME280;1680;48.106;11.708;2023-03-31T08:50:07;94411.31;;;10.77;100.00
1832;BME280;1680;48.106;11.708;2023-03-31T08:52:41;94475.38;;;11.17;100.00
1832;BME280;1680;48.106;11.708;2023-03-31T08:55:17;94474.06;;;11.20;100.00
1832;BME280;1680;48.106;11.708;2023-03-31T08:57:55;94487.69;;;11.17;100.00
1832;BME280;1680;48.106;11.708;2023-03-31T09:00:30;94501.22;;;11.04;100.00
1832;BME280;1680;48.106;11.708;2023-03-31T09:03:03;94528.13;;;10.89;100.00
1832;BME280;1680;48.106;11.708;2023-03-31T09:05:44;94524.81;;;10.99;100.00
1832;BME280;1680;48.106;11.708;2023-03-31T09:08:31;94565.28;;;10.81;100.00
1832;BME280;1680;48.106;11.708;2023-03-31T09:11:07;94560.03;;;10.81;100.00
1832;BME280;1680;48.106;11.708;2023-03-31T09:16:40;94494.94;;;10.73;100.00
1832;BME280;1680;48.106;11.708;2023-03-31T09:19:15;94519.69;;;11.14;100.00
1832;BME280;1680;48.106;11.708;2023-03-31T09:21:47;94506.34;;;11.20;100.00
1832;BME280;1680;48.106;11.708;2023-03-31T09:24:18;94485.09;;;11.22;100.00
1832;BME280;1680;48.106;11.708;2023-03-31T09:26:51;94491.28;;;11.42;100.00
1832;BME280;1680;48.106;11.708;2023-03-31T09:29:21;94497.53;;;11.67;100.00
1832;BME280;1680;48.106;11.708;2023-03-31T09:31:51;94491.94;;;12.00;100.00
1832;BME280;1680;48.106;11.708;2023-03-31T09:34:23;94467.34;;;12.31;100.00
1832;BME280;1680;48.106;11.708;2023-03-31T09:36:51;94469.75;;;12.48;100.00
1832;BME280;1680;48.106;11.708;2023-03-31T09:39:18;94471.88;;;12.51;100.00
1832;BME280;1680;48.106;11.708;2023-03-31T09:41:50;94449.56;;;12.73;100.00
1832;BME280;1680;48.106;11.708;2023-03-31T09:44:24;94442.75;;;12.97;100.00
1832;BME280;1680;48.106;11.708;2023-03-31T09:46:53;94433.28;;;12.96;100.00
1832;BME280;1680;48.106;11.708;2023-03-31T09:49:23;94437.44;;;12.72;100.00
1832;BME280;1680;48.106;11.708;2023-03-31T09:52:00;94434.56;;;12.73;100.00
1832;BME280;1680;48.106;11.708;2023-03-31T09:54:34;94425.63;;;12.79;100.00
1832;BME280;1680;48.106;11.708;2023-03-31T09:57:12;94421.41;;;12.83;100.00
1832;BME280;1680;48.106;11.708;2023-03-31T09:59:40;94416.41;;;12.87;100.00
1832;BME280;1680;48.106;11.708;2023-03-31T10:02:23;94430.59;;;12.71;100.00
1832;BME280;1680;48.106;11.708;2023-03-31T10:04:53;94440.91;;;12.92;100.00
1832;BME280;1680;48.106;11.708;2023-03-31T10:07:22;94429.31;;;12.88;100.00
1832;BME280;1680;48.106;11.708;2023-03-31T10:09:51;94381.41;;;12.76;100.00
1832;BME280;1680;48.106;11.708;2023-03-31T10:12:21;94436.69;;;13.21;100.00
1832;BME280;1680;48.106;11.708;2023-03-31T10:14:51;94446.16;;;13.22;100.00
1832;BME280;1680;48.106;11.708;2023-03-31T10:17:20;94440.66;;;13.19;100.00
1832;BME280;1680;48.106;11.708;2023-03-31T10:19:50;94420.38;;;13.19;100.00
1832;BME280;1680;48.106;11.708;2023-03-31T10:22:26;94367.22;;;12.82;100.00
1832;BME280;1680;48.106;11.708;2023-03-31T10:25:07;94402.22;;;13.08;100.00
1832;BME280;1680;48.106;11.708;2023-03-31T10:27:39;94401.91;;;13.39;100.00
1832;BME280;1680;48.106;11.708;2023-03-31T10:30:10;94392.94;;;13.50;100.00
1832;BME280;1680;48.106;11.708;2023-03-31T10:32:39;94385.22;;;13.73;100.00
1832;BME280;1680;48.106;11.708;2023-03-31T10:35:20;94378.38;;;14.36;100.00
1832;BME280;1680;48.106;11.708;2023-03-31T10:37:48;94366.06;;;14.16;100.00
1832;BME280;1680;48.106;11.708;2023-03-31T10:40:20;94370.63;;;14.01;100.00
1832;BME280;1680;48.106;11.708;2023-03-31T10:42:58;94356.09;;;14.03;100.00
1832;BME280;1680;48.106;11.708;2023-03-31T10:45:28;94354.50;;;14.12;100.00
1832;BME280;1680;48.106;11.708;2023-03-31T10:47:57;94366.63;;;14.03;100.00
1832;BME280;1680;48.106;11.708;2023-03-31T10:50:27;94362.94;;;14.04;100.00
1832;BME280;1680;48.106;11.708;2023-03-31T10:53:01;94349.16;;;14.22;100.00
1832;BME280;1680;48.106;11.708;2023-03-31T10:55:33;94342.50;;;14.35;100.00
1832;BME280;1680;48.106;11.708;2023-03-31T10:58:13;94342.22;;;14.36;100.00
1832;BME280;1680;48.106;11.708;2023-03-31T11:00:53;94326.78;;;14.58;100.00
1832;BME280;1680;48.106;11.708;2023-03-31T11:03:44;94304.88;;;14.57;100.00
1832;BME280;1680;48.106;11.708;2023-03-31T11:06:20;94311.16;;;14.61;100.00
1832;BME280;1680;48.106;11.708;2023-03-31T11:08:58;94303.28;;;14.90;100.00
1832;BME280;1680;48.106;11.708;2023-03-31T11:11:44;94297.38;;;14.98;97.57
1832;BME280;1680;48.106;11.708;2023-03-31T11:14:21;94291.19;;;14.84;97.52
1832;BME280;1680;48.106;11.708;2023-03-31T11:16:58;94295.03;;;14.68;95.84
1832;BME280;1680;48.106;11.708;2023-03-31T11:19:37;94294.72;;;14.41;97.91
1832;BME280;1680;48.106;11.708;2023-03-31T11:22:14;94308.19;;;13.91;98.67
1832;BME280;1680;48.106;11.708;2023-03-31T11:28:02;94307.72;;;13.06;100.00
1832;BME280;1680;48.106;11.708;2023-03-31T11:30:37;94352.22;;;12.98;100.00
1832;BME280;1680;48.106;11.708;2023-03-31T11:36:29;94437.31;;;11.56;100.00
1832;BME280;1680;48.106;11.708;2023-03-31T11:39:17;94415.19;;;11.06;100.00
1832;BME280;1680;48.106;11.708;2023-03-31T11:41:49;94398.06;;;10.62;100.00
1832;BME280;1680;48.106;11.708;2023-03-31T11:44:19;94298.94;;;9.96;100.00
1832;BME280;1680;48.106;11.708;2023-03-31T11:46:53;94343.25;;;10.24;100.00
1832;BME280;1680;48.106;11.708;2023-03-31T11:49:23;94340.84;;;10.23;100.00
1832;BME280;1680;48.106;11.708;2023-03-31T11:51:54;94328.28;;;10.25;100.00
1832;BME280;1680;48.106;11.708;2023-03-31T11:54:26;94317.44;;;10.43;100.00
1832;BME280;1680;48.106;11.708;2023-03-31T11:56:56;94327.22;;;10.52;100.00
1832;BME280;1680;48.106;11.708;2023-03-31T11:59:25;94309.44;;;10.59;100.00
1832;BME280;1680;48.106;11.708;2023-03-31T12:02:03;94245.06;;;10.37;100.00
1832;BME280;1680;48.106;11.708;2023-03-31T12:04:38;94290.69;;;10.77;100.00
1832;BME280;1680;48.106;11.708;2023-03-31T12:07:17;94280.31;;;11.02;100.00
1832;BME280;1680;48.106;11.708;2023-03-31T12:09:52;94278.31;;;11.19;100.00
1832;BME280;1680;48.106;11.708;2023-03-31T12:12:24;94269.47;;;11.40;100.00
1832;BME280;1680;48.106;11.708;2023-03-31T12:14:58;94250.94;;;11.71;100.00
1832;BME280;1680;48.106;11.708;2023-03-31T12:17:31;94259.38;;;11.88;100.00
1832;BME280;1680;48.106;11.708;2023-03-31T12:20:02;94247.06;;;12.03;100.00
1832;BME280;1680;48.106;11.708;2023-03-31T12:22:37;94253.63;;;12.11;100.00
1832;BME280;1680;48.106;11.708;2023-03-31T12:25:10;94198.69;;;11.84;100.00
1832;BME280;1680;48.106;11.708;2023-03-31T12:27:40;94181.91;;;11.90;100.00
1832;BME280;1680;48.106;11.708;2023-03-31T12:30:11;94235.50;;;12.19;100.00
1832;BME280;1680;48.106;11.708;2023-03-31T12:32:45;94235.50;;;12.19;100.00
1832;BME280;1680;48.106;11.708;2023-03-31T12:35:18;94231.81;;;12.20;100.00
1832;BME280;1680;48.106;11.708;2023-03-31T12:38:02;94234.19;;;12.27;100.00
1832;BME280;1680;48.106;11.708;2023-03-31T12:40:40;94233.13;;;12.43;100.00
1832;BME280;1680;48.106;11.708;2023-03-31T12:43:40;94237.06;;;12.45;100.00
1832;BME280;1680;48.106;11.708;2023-03-31T12:46:22;94229.16;;;12.50;100.00
1832;BME280;1680;48.106;11.708;2023-03-31T12:49:03;94232.81;;;12.59;100.00
1832;BME280;1680;48.106;11.708;2023-03-31T12:52:03;94230.47;;;12.53;100.00
1832;BME280;1680;48.106;11.708;2023-03-31T12:54:45;94234.16;;;12.57;100.00
1832;BME280;1680;48.106;11.708;2023-03-31T12:57:21;94253.06;;;12.58;100.00
1832;BME280;1680;48.106;11.708;2023-03-31T13:00:20;94257.53;;;12.58;100.00
1832;BME280;1680;48.106;11.708;2023-03-31T13:02:48;94215.50;;;12.48;100.00
1832;BME280;1680;48.106;11.708;2023-03-31T13:05:46;94224.88;;;12.84;100.00
1832;BME280;1680;48.106;11.708;2023-03-31T13:11:10;94246.06;;;13.27;100.00
1832;BME280;1680;48.106;11.708;2023-03-31T13:13:40;94221.56;;;13.32;100.00
1832;BME280;1680;48.106;11.708;2023-03-31T13:16:10;94229.53;;;13.17;87.40
1832;BME280;1680;48.106;11.708;2023-03-31T13:18:49;94240.63;;;12.99;80.76
1832;BME280;1680;48.106;11.708;2023-03-31T13:21:19;94268.59;;;12.65;82.35
1832;BME280;1680;48.106;11.708;2023-03-31T13:23:46;94255.97;;;12.47;81.31
1832;BME280;1680;48.106;11.708;2023-03-31T13:26:36;94264.38;;;12.24;80.99
1832;BME280;1680;48.106;11.708;2023-03-31T13:29:19;94195.03;;;11.95;81.93
1832;BME280;1680;48.106;11.708;2023-03-31T13:32:20;94187.66;;;11.97;81.60
1832;BME280;1680;48.106;11.708;2023-03-31T13:34:53;94198.19;;;11.87;81.16
1832;BME280;1680;48.106;11.708;2023-03-31T13:37:35;94199.47;;;12.05;79.77
1832;BME280;1680;48.106;11.708;2023-03-31T13:40:19;94205.81;;;12.09;80.86
1832;BME280;1680;48.106;11.708;2023-03-31T13:43:14;94196.06;;;11.99;78.00
1832;BME280;1680;48.106;11.708;2023-03-31T13:45:51;94185.03;;;12.02;81.03
1832;BME280;1680;48.106;11.708;2023-03-31T13:48:34;94216.06;;;12.20;82.60
1832;BME280;1680;48.106;11.708;2023-03-31T13:51:14;94213.66;;;12.34;81.27
1832;BME280;1680;48.106;11.708;2023-03-31T13:54:17;94222.78;;;12.71;82.31